Flight Track Log - Related Links

Times and Time Zones

All times are in EDT time to prevent confusion due to time zone crossing. See the GJS3710 flight status page for this flight to view local times or setup timezone preferences in your user account.


Time Position Orientation Groundspeed Altitude Reporting Facility
EDT Latitude Longitude Course Direction KTS MPH feet Rate Location/Type
Sat 01:29:46 PM 30.2711 -97.7861 291° West 236 272 5,800  Level Houston Center
Sat 01:30:00 PM 30.4372 -97.7272 293° West  Level FlightAware Approximate
Sat 01:30:48 PM 30.2914 -97.8833 284° West 259 298 9,300  Level Houston Center
Sat 01:31:00 PM 30.4787 -97.8414 293° West  Level FlightAware Approximate
Sat 01:31:49 PM 30.3386 -97.9617 305° West 287 330 11,100  Level Houston Center
Sat 01:32:00 PM 30.5188 -97.9564 291° West  Level FlightAware Approximate
Sat 01:32:51 PM 30.3908 -98.0572 302° West 340 391 12,100  Level Houston Center
Sat 01:33:00 PM 30.5575 -98.0721 291° West  Level FlightAware Approximate
Sat 01:33:53 PM 30.4497 -98.1619 303° West 374 430 13,900  Level Houston Center
Sat 01:34:00 PM 30.5960 -98.1879 291° West  Level FlightAware Approximate
Sat 01:34:54 PM 30.5086 -98.2664 303° West 382 440 16,400  Level Houston Center
Sat 01:35:00 PM 30.6346 -98.3037 291° West  Level FlightAware Approximate
Sat 01:35:56 PM 30.5644 -98.3664 303° West 370 426 18,100  Level Houston Center
Sat 01:36:58 PM 30.6231 -98.4717 303° West 379 436 19,600 1,512 Climbing Houston Center
Sat 01:37:59 PM 30.6831 -98.5792 303° West 389 448 21,200 1,512 Climbing Houston Center
Sat 01:39:01 PM 30.7431 -98.6889 302° West 397 457 22,700 1,220 Climbing Houston Center
Sat 01:40:02 PM 30.8125 -98.7956 307° West 410 472 23,700 976 Climbing Houston Center
Sat 01:41:04 PM 30.9214 -98.8656 331° Northwest 440 506 24,700 823 Climbing Houston Center
Sat 01:42:06 PM 31.0342 -98.9367 332° Northwest 452 520 25,400 585 Climbing Houston Center
Sat 01:43:07 PM 31.1503 -99.0108 331° Northwest 464 534 25,900 537 Climbing Houston Center
Sat 01:44:09 PM 31.2900 -99.0981 332° Northwest 480 552 26,500 1,220 Climbing Houston Center
Sat 01:45:10 PM 31.4075 -99.1719 332° Northwest 473 544 28,400 1,415 Climbing Houston Center
Sat 01:46:12 PM 31.5197 -99.2442 331° Northwest 459 528 29,400 927 Climbing Houston Center
Sat 01:47:13 PM 31.6247 -99.3092 332° Northwest 461 531 30,300 744 Climbing Fort Worth Center
Sat 01:48:13 PM 31.7386 -99.3822 331° Northwest 456 525 30,900 600 Climbing Fort Worth Center
Sat 01:49:13 PM 31.8500 -99.4581 330° Northwest 456 525 31,500 600 Climbing Fort Worth Center
Sat 01:50:13 PM 31.9639 -99.5267 333° Northwest 456 525 32,100 600 Climbing Fort Worth Center
Sat 01:51:13 PM 32.0794 -99.6028 331° Northwest 456 525 32,700 600 Climbing Fort Worth Center
Sat 01:52:13 PM 32.1928 -99.6767 331° Northwest 456 525 33,300 600 Climbing Fort Worth Center
Sat 01:53:13 PM 32.3064 -99.7508 331° Northwest 456 525 33,900 600 Climbing Fort Worth Center
Sat 01:54:13 PM 32.4197 -99.8253 331° Northwest 456 525 34,500 600 Climbing Fort Worth Center
Sat 01:55:13 PM 32.5311 -99.8972 331° Northwest 456 525 35,100 600 Climbing Fort Worth Center
Sat 01:56:13 PM 32.6486 -99.9719 332° Northwest 456 525 35,700 600 Climbing Fort Worth Center
Sat 01:57:13 PM 32.7761 -100.0572 331° Northwest 476 548 36,300 550 Climbing Fort Worth Center
Sat 01:58:13 PM 32.8875 -100.1272 332° Northwest 468 539 36,800 500 Climbing Fort Worth Center
Sat 01:59:13 PM 33.0006 -100.2000 332° Northwest 463 533 37,300 500 Climbing Fort Worth Center
Sat 02:00:13 PM 33.1139 -100.2731 332° Northwest 458 527 37,800 350 Climbing Fort Worth Center
Sat 02:01:13 PM 33.2247 -100.3461 331° Northwest 458 527 38,000 100 Climbing Fort Worth Center
Sat 02:02:13 PM 33.3339 -100.4169 332° Northwest 452 520 38,000  Level Fort Worth Center
Sat 02:03:13 PM 33.4489 -100.4931 331° Northwest 458 527 38,000  Level Fort Worth Center
Sat 02:04:13 PM 33.5639 -100.5669 332° Northwest 458 527 38,000  Level Fort Worth Center
Sat 02:05:14 PM 33.6786 -100.6458 330° Northwest 463 533 38,000  Level Fort Worth Center
Sat 02:06:13 PM 33.7936 -100.7200 332° Northwest 463 533 38,000  Level Fort Worth Center
Sat 02:07:13 PM 33.9064 -100.7969 330° Northwest 468 539 38,000  Level Fort Worth Center
Sat 02:08:13 PM 34.0189 -100.8739 330° Northwest 468 539 38,000  Level Fort Worth Center
Sat 02:09:13 PM 34.1317 -100.9461 332° Northwest 468 539 38,000  Level Fort Worth Center
Sat 02:10:13 PM 34.2442 -101.0236 330° Northwest 463 533 38,000  Level Fort Worth Center
Sat 02:11:36 PM 34.4003 -101.1275 331° Northwest 469 540 38,000  Level Albuquerque Center
Sat 02:12:37 PM 34.5133 -101.2031 331° Northwest 466 536 38,000  Level Albuquerque Center
Sat 02:13:39 PM 34.6256 -101.2794 331° Northwest 464 534 38,000  Level Albuquerque Center
Sat 02:14:42 PM 34.7378 -101.3556 331° Northwest 463 533 38,000  Level Albuquerque Center
Sat 02:15:43 PM 34.8508 -101.4328 331° Northwest 465 535 38,000  Level Albuquerque Center
Sat 02:16:44 PM 34.9711 -101.5164 330° Northwest 467 537 38,000  Level Albuquerque Center
Sat 02:17:46 PM 35.0889 -101.5961 331° Northwest 476 548 38,000  Level Albuquerque Center
Sat 02:18:48 PM 35.2061 -101.6767 331° Northwest 480 552 38,000  Level Albuquerque Center
Sat 02:19:49 PM 35.3472 -101.7489 337° Northwest 471 542 38,000  Level Albuquerque Center
Sat 02:20:51 PM 35.4700 -101.8061 339° North 471 542 38,000  Level Albuquerque Center
Sat 02:21:53 PM 35.5936 -101.8647 339° North 466 536 38,000  Level Albuquerque Center
Sat 02:22:54 PM 35.7164 -101.9217 339° North 470 541 38,000  Level Albuquerque Center
Sat 02:23:56 PM 35.8381 -101.9783 339° North 467 537 38,000  Level Albuquerque Center
Sat 02:24:58 PM 35.9589 -102.0347 339° North 466 536 38,000  Level Albuquerque Center
Sat 02:25:59 PM 36.0794 -102.0914 339° North 464 534 38,000  Level Albuquerque Center
Sat 02:27:01 PM 36.2000 -102.1472 340° North 464 534 38,000  Level Albuquerque Center
Sat 02:28:02 PM 36.3194 -102.2036 339° North 461 531 38,000  Level Albuquerque Center
Sat 02:29:04 PM 36.4617 -102.2714 339° North 458 527 38,000  Level Albuquerque Center
Sat 02:30:06 PM 36.5803 -102.3269 339° North 455 524 38,000  Level Albuquerque Center
Sat 02:31:07 PM 36.6972 -102.3842 339° North 454 522 38,000  Level Albuquerque Center
Sat 02:32:09 PM 36.8122 -102.4381 339° North 444 511 38,000  Level Albuquerque Center
Sat 02:33:10 PM 36.9347 -102.4967 339° North 442 509 38,000 -195 Level Albuquerque Center
Sat 02:34:12 PM 37.0528 -102.5542 339° North 440 506 37,600 -390 Descending Albuquerque Center
Sat 02:35:13 PM 37.1619 -102.6078 339° North 441 507 37,200 -488 Descending Albuquerque Center
Sat 02:36:15 PM 37.2925 -102.6697 339° North 446 513 36,600 -504 Descending Albuquerque Center
Sat 02:37:12 PM 37.3831 -102.7128 339° North 444 511 36,200 -305 Descending Denver Center
Sat 02:38:13 PM 37.5108 -102.7753 339° North 442 509 36,000 -98 Descending Denver Center
Sat 02:39:15 PM 37.6264 -102.8125 346° North 445 512 36,000  Level Denver Center
Sat 02:40:17 PM 37.7533 -102.8811 337° Northwest 450 518 36,000  Level Denver Center
Sat 02:41:18 PM 37.8536 -102.9619 328° Northwest 448 516 36,000  Level Denver Center
Sat 02:42:20 PM 37.9706 -103.0564 328° Northwest 448 516 36,000  Level Denver Center
Sat 02:43:21 PM 38.0700 -103.1372 327° Northwest 445 512 36,000  Level Denver Center
Sat 02:44:23 PM 38.1867 -103.2319 327° Northwest 446 513 36,000  Level Denver Center
Sat 02:45:24 PM 38.2869 -103.3144 327° Northwest 450 518 36,000 -98 Level Denver Center
Sat 02:46:26 PM 38.4017 -103.4092 327° Northwest 450 518 35,800 -1,065 Descending Denver Center
Sat 02:47:28 PM 38.5025 -103.4914 327° Northwest 438 504 33,800 -1,902 Descending Denver Center
Sat 02:48:29 PM 38.5914 -103.5650 327° Northwest 403 464 31,900 -1,902 Descending Denver Center
Sat 02:49:31 PM 38.6967 -103.6514 327° Northwest 403 464 29,900 -1,659 Descending Denver Center
Sat 02:50:32 PM 38.7792 -103.7197 327° Northwest 436 502 28,500 -1,902 Descending Denver Center
Sat 02:51:34 PM 38.9067 -103.8269 327° Northwest 426 490 26,000 -2,195 Descending Denver Center
Sat 02:52:35 PM 38.9969 -103.9022 327° Northwest 407 468 24,000 -1,561 Descending Denver Center
Sat 02:53:37 PM 39.0683 -103.9631 327° Northwest 393 452 22,800 -1,415 Descending Denver Center
Sat 02:54:38 PM 39.1714 -104.0497 327° Northwest 362 417 21,100 -1,317 Descending Denver Center
Sat 02:55:40 PM 39.2431 -104.1119 326° Northwest 326 375 20,100 -1,065 Descending Denver Center
Sat 02:56:42 PM 39.3211 -104.1772 327° Northwest 311 358 18,900 -1,171 Descending Denver Center
Sat 02:57:43 PM 39.3942 -104.2372 328° Northwest 310 357 17,700 -1,024 Descending Denver Center
Sat 02:58:45 PM 39.4667 -104.2936 329° Northwest 304 350 16,800 -1,220 Descending Denver Center
Sat 02:59:46 PM 39.5417 -104.3567 327° Northwest 301 346 15,200 -1,073 Descending Denver Center
Sat 03:00:48 PM 39.6092 -104.4100 329° Northwest 286 329 14,600 -439 Descending Denver Center
Sat 03:01:49 PM 39.6758 -104.4656 327° Northwest 284 327 14,300 -585 Descending Denver Center
Sat 03:02:51 PM 39.7503 -104.5214 330° Northwest 287 330 13,400 -1,113 Descending Denver Center
Sat 03:03:53 PM 39.8294 -104.5219 360° North 287 330 12,000 -1,371 Descending Denver Center
Sat 03:04:36 PM 39.8833 -104.5167 North 275 316 11,000 -1,748 Descending Denver TRACON
Sat 03:05:36 PM 39.9500 -104.5500 339° North 252 290 9,000 -1,750 Descending Denver TRACON
Sat 03:06:36 PM 39.9667 -104.6333 285° West 224 258 7,500 -1,500 Descending Denver TRACON

Login

Don't have an account? Register now (free) for customized features, flight alerts, and more!